地図

経路データ

SID SEASON NUMBER BASIN SUBBASIN NAME ISO_TIME NATURE LAT LON WMO_WIND WMO_PRES WMO_AGENCY TRACK_TYPE DIST2LAND LANDFALL IFLAG USA_AGENCY USA_ATCF_ID USA_LAT USA_LON USA_RECORD USA_STATUS USA_WIND USA_PRES USA_SSHS USA_R34_NE USA_R34_SE USA_R34_SW USA_R34_NW USA_R50_NE USA_R50_SE USA_R50_SW USA_R50_NW USA_R64_NE USA_R64_SE USA_R64_SW USA_R64_NW USA_POCI USA_ROCI USA_RMW USA_EYE TOKYO_LAT TOKYO_LON TOKYO_GRADE TOKYO_WIND TOKYO_PRES TOKYO_R50_DIR TOKYO_R50_LONG TOKYO_R50_SHORT TOKYO_R30_DIR TOKYO_R30_LONG TOKYO_R30_SHORT TOKYO_LAND CMA_LAT CMA_LON CMA_CAT CMA_WIND CMA_PRES HKO_LAT HKO_LON HKO_CAT HKO_WIND HKO_PRES NEWDELHI_LAT NEWDELHI_LON NEWDELHI_GRADE NEWDELHI_WIND NEWDELHI_PRES NEWDELHI_CI NEWDELHI_DP NEWDELHI_POCI REUNION_LAT REUNION_LON REUNION_TYPE REUNION_WIND REUNION_PRES REUNION_TNUM REUNION_CI REUNION_RMW REUNION_R34_NE REUNION_R34_SE REUNION_R34_SW REUNION_R34_NW REUNION_R50_NE REUNION_R50_SE REUNION_R50_SW REUNION_R50_NW REUNION_R64_NE REUNION_R64_SE REUNION_R64_SW REUNION_R64_NW BOM_LAT BOM_LON BOM_TYPE BOM_WIND BOM_PRES BOM_TNUM BOM_CI BOM_RMW BOM_R34_NE BOM_R34_SE BOM_R34_SW BOM_R34_NW BOM_R50_NE BOM_R50_SE BOM_R50_SW BOM_R50_NW BOM_R64_NE BOM_R64_SE BOM_R64_SW BOM_R64_NW BOM_ROCI BOM_POCI BOM_EYE BOM_POS_METHOD BOM_PRES_METHOD NADI_LAT NADI_LON NADI_CAT NADI_WIND NADI_PRES WELLINGTON_LAT WELLINGTON_LON WELLINGTON_WIND WELLINGTON_PRES DS824_LAT DS824_LON DS824_STAGE DS824_WIND DS824_PRES TD9636_LAT TD9636_LON TD9636_STAGE TD9636_WIND TD9636_PRES TD9635_LAT TD9635_LON TD9635_WIND TD9635_PRES TD9635_ROCI NEUMANN_LAT NEUMANN_LON NEUMANN_CLASS NEUMANN_WIND NEUMANN_PRES MLC_LAT MLC_LON MLC_CLASS MLC_WIND MLC_PRES USA_GUST BOM_GUST BOM_GUST_PER REUNION_GUST REUNION_GUST_PER USA_SEAHGT USA_SEARAD_NE USA_SEARAD_SE USA_SEARAD_SW USA_SEARAD_NW STORM_SPEED STORM_DIR
2002295N11261 2002 82 EP MM KENNA 2002-10-22 00:00:00 TS 11.4000 -99.4000 30 1006 hurdat_epa main 543 543 O_____________ hurdat_epa EP142002 11.4000 -99.4000 TD 30 1006 -1 1010 180 40 10 275
2002295N11261 2002 82 EP MM KENNA 2002-10-22 03:00:00 TS 11.4452 -99.9025 main 562 557 P_____________ EP142002 11.4452 -99.9025 TD 32 1005 -1 1010 180 35 10 276
2002295N11261 2002 82 EP MM KENNA 2002-10-22 06:00:00 TS 11.5000 -100.400 35 1004 hurdat_epa main 571 571 O_____________ hurdat_epa EP142002 11.5000 -100.400 TS 35 1004 0 30 20 20 30 1010 180 30 10 278
2002295N11261 2002 82 EP MM KENNA 2002-10-22 09:00:00 TS 11.5774 -100.893 main 581 581 P_____________ EP142002 11.5774 -100.893 TS 35 1003 0 40 30 30 40 1010 177 30 10 282
2002295N11261 2002 82 EP MM KENNA 2002-10-22 12:00:00 TS 11.7000 -101.400 35 1003 hurdat_epa main 589 585 O_____________ hurdat_epa EP142002 11.7000 -101.400 TS 35 1003 0 50 40 40 50 1010 175 30 11 286
2002295N11261 2002 82 EP MM KENNA 2002-10-22 15:00:00 TS 11.8774 -101.943 main 587 587 P_____________ EP142002 11.8774 -101.943 TS 35 1003 0 50 45 45 50 1010 175 30 12 290
2002295N11261 2002 82 EP MM KENNA 2002-10-22 18:00:00 TS 12.1000 -102.500 35 1003 hurdat_epa main 596 592 O_____________ hurdat_epa EP142002 12.1000 -102.500 TS 35 1003 0 50 50 50 50 1010 175 30 12 293
2002295N11261 2002 82 EP MM KENNA 2002-10-22 21:00:00 TS 12.3424 -103.058 main 599 585 P_____________ EP142002 12.3424 -103.058 TS 37 1002 0 50 50 50 50 1010 175 30 12 295
2002295N11261 2002 82 EP MM KENNA 2002-10-23 00:00:00 TS 12.6000 -103.600 40 1002 hurdat_epa main 590 585 O_____________ hurdat_epa EP142002 12.6000 -103.600 TS 40 1002 0 50 50 50 50 1010 175 30 11 297
2002295N11261 2002 82 EP MM KENNA 2002-10-23 03:00:00 TS 12.8498 -104.100 main 597 585 P_____________ EP142002 12.8498 -104.100 TS 45 999 0 55 55 55 55 1010 175 30 11 297
2002295N11261 2002 82 EP MM KENNA 2002-10-23 06:00:00 TS 13.1000 -104.600 50 997 hurdat_epa main 588 581 O_____________ hurdat_epa EP142002 13.1000 -104.600 TS 50 997 0 60 60 60 60 1010 175 30 11 296
2002295N11261 2002 82 EP MM KENNA 2002-10-23 09:00:00 TS 13.3424 -105.135 main 584 571 P_____________ EP142002 13.3424 -105.135 TS 55 993 0 60 60 60 60 1010 175 30 12 295
2002295N11261 2002 82 EP MM KENNA 2002-10-23 12:00:00 TS 13.6000 -105.700 60 990 hurdat_epa main 576 570 O_____________ hurdat_epa EP142002 13.6000 -105.700 TS 60 990 0 60 60 60 60 1010 175 30 13 296
2002295N11261 2002 82 EP MM KENNA 2002-10-23 15:00:00 TS 13.8850 -106.300 main 576 572 P_____________ EP142002 13.8850 -106.300 TS 67 985 1 67 67 67 67 1010 175 30 13 297
2002295N11261 2002 82 EP MM KENNA 2002-10-23 18:00:00 TS 14.2000 -106.900 75 980 hurdat_epa main 585 583 O_____________ hurdat_epa EP142002 14.2000 -106.900 HU 75 980 1 75 75 75 75 1010 175 30 13 300
2002295N11261 2002 82 EP MM KENNA 2002-10-23 21:00:00 TS 14.5501 -107.502 main 589 586 P_____________ EP142002 14.5501 -107.502 HU 82 975 1 75 75 75 75 1010 175 22 13 303
2002295N11261 2002 82 EP MM KENNA 2002-10-24 00:00:00 TS 14.9000 -108.000 90 970 hurdat_epa main 589 581 O_____________ hurdat_epa EP142002 14.9000 -108.000 HU 90 970 2 75 75 75 75 1010 175 15 10 309
2002295N11261 2002 82 EP MM KENNA 2002-10-24 03:00:00 TS 15.1848 -108.310 main 581 570 P_____________ EP142002 15.1848 -108.310 HU 97 962 3 87 87 87 87 1010 175 15 8 321
2002295N11261 2002 82 EP MM KENNA 2002-10-24 06:00:00 TS 15.5000 -108.500 105 955 hurdat_epa main 570 554 O_____________ hurdat_epa EP142002 15.5000 -108.500 HU 105 955 3 100 100 100 100 1010 175 15 8 334
2002295N11261 2002 82 EP MM KENNA 2002-10-24 09:00:00 TS 15.9275 -108.687 main 554 522 P_____________ EP142002 15.9275 -108.687 HU 115 945 4 100 100 87 100 1010 200 12 10 342
2002295N11261 2002 82 EP MM KENNA 2002-10-24 12:00:00 TS 16.4000 -108.800 125 935 hurdat_epa main 522 499 O_____________ hurdat_epa EP142002 16.4000 -108.800 HU 125 935 4 100 100 75 100 1010 225 10 9 350
2002295N11261 2002 82 EP MM KENNA 2002-10-24 15:00:00 TS 16.8424 -108.860 main 499 456 P_____________ EP142002 16.8424 -108.860 HU 132 926 4 100 100 75 100 1010 225 7 9 0
2002295N11261 2002 82 EP MM KENNA 2002-10-24 18:00:00 TS 17.3000 -108.800 140 917 hurdat_epa main 456 407 O_____________ hurdat_epa EP142002 17.3000 -108.800 HU 140 917 5 100 100 75 100 1010 225 5 10 14
2002295N11261 2002 82 EP MM KENNA 2002-10-24 21:00:00 TS 17.7925 -108.610 main 407 350 P_____________ EP142002 17.7925 -108.610 HU 142 915 5 100 100 75 100 1010 225 5 11 25
2002295N11261 2002 82 EP MM KENNA 2002-10-25 00:00:00 TS 18.3000 -108.300 145 913 hurdat_epa main 350 294 O_____________ hurdat_epa EP142002 18.3000 -108.300 HU 145 913 5 100 100 75 100 1010 225 5 12 33
2002295N11261 2002 82 EP MM KENNA 2002-10-25 03:00:00 TS 18.7924 -107.937 main 285 223 P_____________ EP142002 18.7924 -107.937 HU 145 914 5 100 100 75 100 1010 225 5 13 37
2002295N11261 2002 82 EP MM KENNA 2002-10-25 06:00:00 TS 19.3000 -107.500 145 915 hurdat_epa main 223 160 O_____________ hurdat_epa EP142002 19.3000 -107.500 HU 145 915 5 100 100 75 100 1010 225 5 13 40
2002295N11261 2002 82 EP MM KENNA 2002-10-25 09:00:00 TS 19.7877 -107.054 main 160 83 P_____________ EP142002 19.7877 -107.054 HU 137 927 5 100 100 75 100 1010 225 15 15 41
2002295N11261 2002 82 EP MM KENNA 2002-10-25 12:00:00 TS 20.4000 -106.500 130 939 hurdat_epa main 83 53 O_____________ hurdat_epa EP142002 20.4000 -106.500 HU 130 939 4 100 100 75 100 1010 225 25 19 40
2002295N11261 2002 82 EP MM KENNA 2002-10-25 15:00:00 TS 21.2619 -105.755 main 53 0 P_____________ EP142002 21.2619 -105.755 HU 123 946 4 87 87 75 75 1010 187 25 22 38
2002295N11261 2002 82 EP MM KENNA 2002-10-25 16:30:00 TS 21.7000 -105.400 120 950 hurdat_epa main 0 0 V_____________ hurdat_epa EP142002 21.7000 -105.400 L HU 120 950 4 81 81 75 62 1010 168 25 21 36
2002295N11261 2002 82 EP MM KENNA 2002-10-25 18:00:00 TS 22.1000 -105.100 100 960 hurdat_epa main 0 0 O_____________ hurdat_epa EP142002 22.1000 -105.100 HU 100 960 3 75 75 75 50 1010 150 25 21 39
2002295N11261 2002 82 EP MM KENNA 2002-10-25 21:00:00 TS 22.8985 -104.368 main 0 0 P_____________ EP142002 22.8985 -104.368 HU 67 980 1 62 1010 150 37 22 43
2002295N11261 2002 82 EP MM KENNA 2002-10-26 00:00:00 TS 23.7000 -103.500 35 1000 hurdat_epa main 0 O_____________ hurdat_epa EP142002 23.7000 -103.500 TS 35 1000 0 50 1010 150 50 23 45

IBTrACS Databaseについて

本データベースは、米国NOAAが公開する1842年以降の世界の熱帯低気圧のベストトラックデータアーカイブInternational Best Track Archive for Climate Stewardship (IBTrACS)を、ウェブで閲覧しやすい形式に変換したものです。

最終更新日:2021-10-08